Terminal Aerodrome Forecast
Issued by NWS Wilmington, OH

Current Version | Previous Version | Text Only | Print | Product List | Glossary Off
Versions: 1 2 3 4 5 6 7 8 9 10 11 12 13 14 15 16 17 18 19 20 21 22 23 24

000
FTUS41 KILN 042200 AAB
TAFDAY
TAF AMD
KDAY 042237Z 0423/0518 32012KT 2SM -SN SCT017 SCT023 OVC030
     FM050200 34011KT P6SM SCT015 OVC030
     FM051000 34010KT P6SM BKN025=

USA.gov is the U.S. government's official web portal to all federal, state and local government web resources and services.